Hanover, MD (21076)

9:50 AM EST on December 18, 2014 (GMT -0500)
Dorchester Woods | Change Station
CLOSE
Current Station
Personal Weather Station
Location: Hanover, MD
Elevation: 171 ft
Nearby Weather Stations

Elev 171 ft 39.16 °N, 76.73 °W | Updated 7 minutes ago

Scattered Clouds
Scattered Clouds
36.0 °F
Feels Like 34 °F
N
3.2
Wind Variable Wind from NNE

Today
High -- | Low -- °F
--% Chance of Precip.
Yesterday
High -- | Low -- °F
Precip. -- in
7:20 AM 4:46 PM
Waning Crescent, 14% visible
Pressure 30.15 in
Visibility 10.0 miles
Clouds Few 4400 ft
Scattered Clouds 16000 ft
Scattered Clouds 25000 ft
Windchill 34 °F
Dew Point 21 °F
Humidity 54%
Rainfall 0.00 in
Snow Depth Not available.
UV 1 out of 12
Pollen .10 out of 12
Air Quality Not available.
Flu Activity Not available.
METAR KBWI 181354Z 28010KT 10SM FEW044 SCT160 SCT250 02/M07 A3014 RMK AO2 SLP209 T00171072

More Conditions Fewer Conditions

Pressure 30.15 in
Visibility 10.0 miles
Clouds Few 4400 ft
Scattered Clouds 16000 ft
Scattered Clouds 25000 ft
Windchill 34 °F
Dew Point 21 °F
Humidity 54%
Rainfall 0.00 in
Snow Depth Not available.
UV 1 out of 12
Pollen .10 out of 12
Air Quality Not available.
Flu Activity Not available.
METAR KBWI 181354Z 28010KT 10SM FEW044 SCT160 SCT250 02/M07 A3014 RMK AO2 SLP209 T00171072

More Conditions Fewer Conditions

10-Day Weather Forecast

Almanac

Astronomy

Dec. 18, 2014 Rise Set
Actual Time
Civil Twilight
Nautical Twilight
Astronomical Twilight
Moon
Length of Visible Light
Length of Day
Tomorrow will be .
, % of the Moon is Illuminated

Today's Extremes

State Highs State Lows

Community

WunderPhotos

Upload Photos

1,778,929 photos uploaded!

WunderBlogs® & News

Nearby

Air Quality

  Air Quality AQ Index Pollutant
Not available.

Snow Depth

Station Depth Elevation

Earthquake Activity

City Distance Mag. Time & Date
Minimum magnitude displayed is 2.5.

Coastal Water Temperatures

Place Temperature

Nearby Weather Stations